createdAt,value
2022-08-05T00:00:35.345Z,20.87
2022-08-05T00:02:52.140Z,20.85
2022-08-05T00:04:55.798Z,20.90
2022-08-05T00:06:58.396Z,20.90
2022-08-05T00:09:01.922Z,20.95
2022-08-05T00:11:20.652Z,20.99
2022-08-05T00:13:38.223Z,20.96
2022-08-05T00:15:57.958Z,20.88
2022-08-05T00:18:02.502Z,20.88
2022-08-05T00:20:05.499Z,20.83
2022-08-05T00:22:11.235Z,20.87
2022-08-05T00:24:15.998Z,20.83
2022-08-05T00:26:18.520Z,20.80
2022-08-05T00:28:21.178Z,20.77
2022-08-05T00:30:32.245Z,20.71
2022-08-05T00:32:34.802Z,20.68
2022-08-05T00:34:54.216Z,20.59
2022-08-05T00:37:10.727Z,20.59
2022-08-05T00:39:15.712Z,20.57
2022-08-05T00:41:51.538Z,20.50
2022-08-05T00:43:54.457Z,20.45
2022-08-05T00:45:56.795Z,20.34
2022-08-05T00:48:05.623Z,20.38
2022-08-05T00:50:09.807Z,20.34
2022-08-05T00:52:12.031Z,20.27
2022-08-05T00:54:14.486Z,20.19
2022-08-05T00:56:22.889Z,20.09
2022-08-05T00:58:27.259Z,20.10
2022-08-05T01:00:31.456Z,20.06
2022-08-05T01:02:33.535Z,19.93
2022-08-05T01:04:36.671Z,19.93
2022-08-05T01:06:47.889Z,19.86
2022-08-05T01:08:51.173Z,19.82
2022-08-05T01:11:13.649Z,19.81
2022-08-05T01:13:27.378Z,19.75
2022-08-05T01:15:57.158Z,19.63
2022-08-05T01:18:25.594Z,19.60
2022-08-05T01:21:00.628Z,19.59
2022-08-05T01:23:36.918Z,19.54
2022-08-05T01:26:13.254Z,19.58
2022-08-05T01:28:18.324Z,19.57
2022-08-05T01:30:34.707Z,19.46
2022-08-05T01:32:43.968Z,19.60
2022-08-05T01:35:10.675Z,19.64
2022-08-05T01:37:25.229Z,19.63
2022-08-05T01:39:45.711Z,19.63
2022-08-05T01:41:50.747Z,19.58
2022-08-05T01:43:57.134Z,19.61
2022-08-05T01:46:07.297Z,19.66
2022-08-05T01:48:20.020Z,19.63
2022-08-05T01:50:39.267Z,19.63
2022-08-05T01:52:49.996Z,19.58
2022-08-05T01:54:58.036Z,19.64
2022-08-05T01:58:13.083Z,19.56
2022-08-05T01:59:31.087Z,19.56
2022-08-05T02:01:40.297Z,19.53
2022-08-05T02:03:46.778Z,19.50
2022-08-05T02:05:49.894Z,19.48
2022-08-05T02:08:02.131Z,19.46
2022-08-05T02:10:07.968Z,19.45
2022-08-05T02:12:39.351Z,19.45
2022-08-05T02:14:53.811Z,19.44
2022-08-05T02:17:07.992Z,19.41
2022-08-05T02:19:34.223Z,19.42
2022-08-05T02:21:46.813Z,19.36
2022-08-05T02:23:59.498Z,19.36
2022-08-05T02:26:07.329Z,19.26
2022-08-05T02:28:14.927Z,19.22
2022-08-05T02:30:17.622Z,19.10
2022-08-05T02:32:29.202Z,19.01
2022-08-05T02:34:35.322Z,19.01
2022-08-05T02:36:44.090Z,18.92
2022-08-05T02:38:53.636Z,18.91
2022-08-05T02:40:58.036Z,18.86
2022-08-05T02:43:01.348Z,18.79
2022-08-05T02:45:05.896Z,18.76
2022-08-05T02:47:11.234Z,18.75
2022-08-05T02:49:15.887Z,18.74
2022-08-05T02:51:19.297Z,18.70
2022-08-05T02:53:35.882Z,18.66
2022-08-05T02:55:53.958Z,18.68
2022-08-05T02:58:11.772Z,18.66
2022-08-05T03:00:15.614Z,18.64
2022-08-05T03:02:24.499Z,18.60
2022-08-05T03:04:30.988Z,18.56
2022-08-05T03:06:56.735Z,18.59
2022-08-05T03:08:57.161Z,18.58
2022-08-05T03:11:56.890Z,18.57
2022-08-05T03:13:27.770Z,18.63
2022-08-05T03:15:49.751Z,18.64
2022-08-05T03:17:55.528Z,18.66
2022-08-05T03:19:59.611Z,18.55
2022-08-05T03:22:05.157Z,18.71
2022-08-05T03:24:29.447Z,18.71
2022-08-05T03:26:33.017Z,18.68
2022-08-05T03:28:35.356Z,18.66
2022-08-05T03:30:38.281Z,18.62
2022-08-05T03:32:43.964Z,18.53
2022-08-05T03:34:50.461Z,18.47
2022-08-05T03:36:53.450Z,18.48
2022-08-05T03:38:58.183Z,18.46
2022-08-05T03:41:00.931Z,18.46
2022-08-05T03:43:58.376Z,18.43
2022-08-05T03:45:57.754Z,18.34
2022-08-05T03:47:57.032Z,18.41
2022-08-05T03:50:00.663Z,18.43
2022-08-05T03:52:38.008Z,18.48
2022-08-05T03:55:53.615Z,18.48
2022-08-05T03:57:00.024Z,18.53
2022-08-05T03:59:10.055Z,18.58
2022-08-05T04:01:14.895Z,18.66
2022-08-05T04:03:28.324Z,18.66
2022-08-05T04:05:34.780Z,18.72
2022-08-05T04:07:57.510Z,18.86
2022-08-05T04:10:03.012Z,18.87
2022-08-05T04:12:23.449Z,19.05
2022-08-05T04:14:29.936Z,19.43
2022-08-05T04:16:34.597Z,19.76
2022-08-05T04:18:40.661Z,20.15
2022-08-05T04:20:43.809Z,20.56
2022-08-05T04:22:49.291Z,20.88
2022-08-05T04:24:53.143Z,21.13
2022-08-05T04:26:55.821Z,21.49
2022-08-05T04:29:07.427Z,21.99
2022-08-05T04:31:10.641Z,22.39
2022-08-05T04:33:15.822Z,22.74
2022-08-05T04:35:23.776Z,23.04
2022-08-05T04:38:02.513Z,23.30
2022-08-05T04:39:52.760Z,23.59
2022-08-05T04:41:55.533Z,23.78
2022-08-05T04:43:58.306Z,24.06
2022-08-05T04:46:02.286Z,24.22
2022-08-05T04:48:16.331Z,24.43
2022-08-05T04:50:37.413Z,24.84
2022-08-05T04:52:44.275Z,25.17
2022-08-05T04:54:47.150Z,25.50
2022-08-05T04:56:57.493Z,25.84
2022-08-05T04:59:22.192Z,26.11
2022-08-05T05:02:06.090Z,26.23
2022-08-05T05:03:49.210Z,26.49
2022-08-05T05:06:39.187Z,26.60
2022-08-05T05:08:30.191Z,26.69
2022-08-05T05:10:55.928Z,26.78
2022-08-05T05:12:59.537Z,26.96
2022-08-05T05:15:10.641Z,27.06
2022-08-05T05:17:13.489Z,27.24
2022-08-05T05:19:19.317Z,27.43
2022-08-05T05:21:27.091Z,27.38
2022-08-05T05:24:01.630Z,27.32
2022-08-05T05:26:07.846Z,27.47
2022-08-05T05:28:17.408Z,27.54
2022-08-05T05:30:29.063Z,27.62
2022-08-05T05:32:33.991Z,27.81
2022-08-05T05:34:37.814Z,28.20
2022-08-05T05:36:40.302Z,28.62
2022-08-05T05:38:45.468Z,29.13
2022-08-05T05:40:51.868Z,29.42
2022-08-05T05:42:54.721Z,29.50
2022-08-05T05:44:59.840Z,29.45
2022-08-05T05:47:22.208Z,29.64
2022-08-05T05:49:34.921Z,30.20
2022-08-05T05:51:49.695Z,30.43
2022-08-05T05:54:02.536Z,30.93
2022-08-05T05:56:13.368Z,31.10
2022-08-05T06:00:54.520Z,31.87
2022-08-05T06:02:56.567Z,32.17
2022-08-05T06:05:31.944Z,32.66
2022-08-05T06:08:07.240Z,33.19
2022-08-05T06:10:12.431Z,33.15
2022-08-05T06:12:21.556Z,32.71
2022-08-05T06:14:28.971Z,32.48
2022-08-05T06:16:37.133Z,32.20
2022-08-05T06:20:57.376Z,32.50
2022-08-05T06:23:02.113Z,32.77
2022-08-05T06:25:25.118Z,32.63
2022-08-05T06:28:10.718Z,32.35
2022-08-05T06:30:20.129Z,32.42
2022-08-05T06:32:28.708Z,32.44
2022-08-05T06:34:36.505Z,32.43
2022-08-05T06:36:57.187Z,32.12
2022-08-05T06:39:06.899Z,31.40
2022-08-05T06:41:12.648Z,31.20
2022-08-05T06:43:51.458Z,31.06
2022-08-05T06:45:44.769Z,31.09
2022-08-05T06:48:36.760Z,30.87
2022-08-05T06:50:29.350Z,30.99
2022-08-05T06:52:37.258Z,30.87
2022-08-05T06:54:42.204Z,30.92
2022-08-05T06:56:54.813Z,31.04
2022-08-05T06:59:12.696Z,30.59
2022-08-05T07:03:52.065Z,30.01
2022-08-05T07:05:55.296Z,29.89
2022-08-05T07:08:03.584Z,29.72
2022-08-05T07:10:14.889Z,29.58
2022-08-05T07:12:20.016Z,29.46
2022-08-05T07:14:34.444Z,29.52
2022-08-05T07:17:56.342Z,29.28
2022-08-05T07:18:59.383Z,29.25
2022-08-05T07:21:06.746Z,29.37
2022-08-05T07:23:26.301Z,29.43
2022-08-05T07:25:55.273Z,29.63
2022-08-05T07:28:02.740Z,29.79
2022-08-05T07:30:28.171Z,29.69
2022-08-05T07:32:40.764Z,29.79
2022-08-05T07:34:48.480Z,29.63
2022-08-05T07:37:01.374Z,29.49
2022-08-05T07:39:24.831Z,29.52
2022-08-05T07:42:12.940Z,29.75
2022-08-05T07:44:14.359Z,29.98
2022-08-05T07:46:25.240Z,29.99
2022-08-05T07:49:03.505Z,30.05
2022-08-05T07:50:53.487Z,30.01
2022-08-05T07:53:00.986Z,29.97
2022-08-05T07:55:16.093Z,29.82
2022-08-05T07:57:51.284Z,29.94
2022-08-05T07:59:57.669Z,29.86
2022-08-05T08:02:05.945Z,29.74
2022-08-05T08:04:37.683Z,29.77
2022-08-05T08:06:43.737Z,29.91
2022-08-05T08:08:48.299Z,29.85
2022-08-05T08:10:59.500Z,29.76
2022-08-05T08:13:06.357Z,29.74
2022-08-05T08:15:15.804Z,29.77
2022-08-05T08:17:19.174Z,29.98
2022-08-05T08:20:22.308Z,30.30
2022-08-05T08:21:47.461Z,30.64
2022-08-05T08:24:02.215Z,30.76
2022-08-05T08:26:07.654Z,31.06
2022-08-05T08:28:18.319Z,31.38
2022-08-05T08:30:40.719Z,31.45
2022-08-05T08:32:50.674Z,31.49
2022-08-05T08:34:59.013Z,31.68
2022-08-05T08:37:03.326Z,31.90
2022-08-05T08:39:14.971Z,32.13
2022-08-05T08:41:20.372Z,32.18
2022-08-05T08:45:16.431Z,32.33
2022-08-05T08:45:58.783Z,32.49
2022-08-05T08:48:10.519Z,32.35
2022-08-05T08:50:33.018Z,32.58
2022-08-05T08:53:02.203Z,32.80
2022-08-05T08:55:19.623Z,32.90
2022-08-05T08:57:58.399Z,32.76
2022-08-05T09:00:01.452Z,32.76
2022-08-05T09:02:08.708Z,32.78
2022-08-05T09:04:12.234Z,32.97
2022-08-05T09:06:21.088Z,33.07
2022-08-05T09:08:30.114Z,33.17
2022-08-05T09:10:32.953Z,33.18
2022-08-05T09:12:36.454Z,33.42
2022-08-05T09:14:58.582Z,33.34
2022-08-05T09:17:41.326Z,33.54
2022-08-05T09:20:01.934Z,33.77
2022-08-05T09:22:24.961Z,33.91
2022-08-05T09:24:39.122Z,34.13
2022-08-05T09:26:43.707Z,34.05
2022-08-05T09:28:48.837Z,34.18
2022-08-05T09:32:40.811Z,34.25
2022-08-05T09:34:07.186Z,34.26
2022-08-05T09:39:45.521Z,34.35
2022-08-05T09:42:04.918Z,34.42
2022-08-05T09:44:44.012Z,34.45
2022-08-05T09:46:51.806Z,34.33
2022-08-05T09:49:07.368Z,34.39
2022-08-05T09:51:40.068Z,34.51
2022-08-05T09:53:59.168Z,34.46
2022-08-05T09:56:28.310Z,34.76
2022-08-05T09:58:38.200Z,35.05
2022-08-05T10:01:13.744Z,35.29
2022-08-05T10:03:23.482Z,35.47
2022-08-05T10:05:46.071Z,35.61
2022-08-05T10:08:35.080Z,35.71
2022-08-05T10:10:54.518Z,35.95
2022-08-05T10:13:03.152Z,36.06
2022-08-05T10:18:22.888Z,36.10
2022-08-05T10:20:38.884Z,36.10
2022-08-05T10:22:50.878Z,36.35
2022-08-05T10:25:03.844Z,36.45
2022-08-05T10:27:12.912Z,36.42
2022-08-05T10:30:40.969Z,36.43
2022-08-05T10:32:54.147Z,36.56
2022-08-05T10:34:25.863Z,36.65
2022-08-05T10:36:48.789Z,36.71
2022-08-05T10:39:24.380Z,36.92
2022-08-05T10:42:02.511Z,37.00
2022-08-05T10:44:27.430Z,37.27
2022-08-05T10:50:33.237Z,37.67
2022-08-05T10:52:51.693Z,37.97
2022-08-05T10:57:39.372Z,38.13
2022-08-05T11:05:41.492Z,38.12
2022-08-05T11:08:33.702Z,38.14
2022-08-05T11:14:03.353Z,38.05
2022-08-05T11:16:33.736Z,37.91
2022-08-05T11:20:17.376Z,38.02
2022-08-05T11:23:01.974Z,38.14
2022-08-05T11:26:05.273Z,38.32
2022-08-05T11:30:59.791Z,38.35
2022-08-05T11:33:44.053Z,38.28
2022-08-05T11:36:07.731Z,38.38
2022-08-05T11:38:30.134Z,38.38
2022-08-05T11:41:34.795Z,38.43
2022-08-05T11:44:52.946Z,38.44
2022-08-05T11:47:09.197Z,38.20
2022-08-05T11:49:36.620Z,37.88
2022-08-05T11:51:55.024Z,37.57
2022-08-05T11:54:02.115Z,37.44
2022-08-05T11:56:05.169Z,37.35
2022-08-05T11:58:32.076Z,37.20
2022-08-05T12:00:44.359Z,37.36
2022-08-05T12:02:53.593Z,37.46
2022-08-05T12:05:06.884Z,37.57
2022-08-05T12:08:08.457Z,37.62
2022-08-05T12:10:38.638Z,37.56
2022-08-05T12:12:59.191Z,37.66
2022-08-05T12:15:04.878Z,37.55
2022-08-05T12:18:00.573Z,37.53
2022-08-05T12:20:27.152Z,37.32
2022-08-05T12:22:36.479Z,37.19
2022-08-05T12:25:14.213Z,37.15
2022-08-05T12:30:15.709Z,37.07
2022-08-05T12:32:52.996Z,37.05
2022-08-05T12:37:30.025Z,36.64
2022-08-05T12:39:44.108Z,36.57
2022-08-05T12:42:14.427Z,36.66
2022-08-05T12:44:37.265Z,36.89
2022-08-05T12:47:18.613Z,36.74
2022-08-05T12:52:32.323Z,36.86
2022-08-05T12:55:47.273Z,37.01
2022-08-05T12:59:08.050Z,36.94
2022-08-05T13:02:01.084Z,36.91
2022-08-05T13:04:54.667Z,36.72
2022-08-05T13:07:17.283Z,36.91
2022-08-05T13:09:28.654Z,36.80
2022-08-05T13:12:01.255Z,36.77
2022-08-05T13:24:36.182Z,36.73
2022-08-05T13:27:03.741Z,36.71
2022-08-05T13:29:06.566Z,36.62
2022-08-05T13:31:13.943Z,36.64
2022-08-05T13:34:22.358Z,36.79
2022-08-05T13:39:24.541Z,36.62
2022-08-05T13:41:37.531Z,36.65
2022-08-05T13:43:56.425Z,36.72
2022-08-05T13:46:14.126Z,36.61
2022-08-05T13:55:09.667Z,36.46
2022-08-05T14:09:08.455Z,36.49
2022-08-05T14:12:03.908Z,36.45
2022-08-05T14:14:08.814Z,36.50
2022-08-05T14:20:27.595Z,36.29
2022-08-05T14:23:11.195Z,36.23
2022-08-05T14:29:16.705Z,36.31
2022-08-05T14:32:13.156Z,36.46
2022-08-05T14:40:35.532Z,36.55
2022-08-05T15:32:55.706Z,35.74
2022-08-05T15:35:09.784Z,35.63
2022-08-05T16:30:01.639Z,34.39
2022-08-05T17:00:25.958Z,34.02
2022-08-05T17:03:19.529Z,33.83
2022-08-05T17:12:51.928Z,33.55
2022-08-05T17:26:51.333Z,33.22
2022-08-05T17:36:33.568Z,33.21
2022-08-05T17:56:33.775Z,32.37
2022-08-05T17:58:43.719Z,32.27
2022-08-05T18:13:26.080Z,31.70
2022-08-05T18:16:03.458Z,31.53
2022-08-05T18:18:30.779Z,31.49
2022-08-05T18:20:50.378Z,31.36
2022-08-05T18:23:40.709Z,31.35
2022-08-05T18:26:13.365Z,31.25
2022-08-05T18:28:21.907Z,31.15
2022-08-05T18:30:26.209Z,31.10
2022-08-05T18:33:00.279Z,30.82
2022-08-05T18:35:05.281Z,30.71
2022-08-05T18:37:12.480Z,30.55
2022-08-05T18:39:42.423Z,30.39
2022-08-05T18:41:59.712Z,30.28
2022-08-05T18:44:06.259Z,30.32
2022-08-05T18:46:09.712Z,30.37
2022-08-05T18:48:30.264Z,30.12
2022-08-05T18:50:45.016Z,30.19
2022-08-05T18:52:55.957Z,30.14
2022-08-05T18:54:59.363Z,30.04
2022-08-05T18:57:04.117Z,30.05
2022-08-05T18:59:42.966Z,30.00
2022-08-05T19:01:57.046Z,29.96
2022-08-05T19:04:12.588Z,29.84
2022-08-05T19:06:20.089Z,29.49
2022-08-05T19:09:11.058Z,29.05
2022-08-05T19:11:28.628Z,28.91
2022-08-05T19:13:40.895Z,28.55
2022-08-05T19:15:57.870Z,28.22
2022-08-05T19:18:10.436Z,27.95
2022-08-05T19:20:15.713Z,27.77
2022-08-05T19:22:27.559Z,27.76
2022-08-05T19:24:34.720Z,27.61
2022-08-05T19:26:54.673Z,27.47
2022-08-05T19:28:58.163Z,27.35
2022-08-05T19:31:04.862Z,27.26
2022-08-05T19:33:16.902Z,27.16
2022-08-05T19:35:56.838Z,27.02
2022-08-05T19:38:06.711Z,26.96
2022-08-05T19:40:15.074Z,26.92
2022-08-05T19:42:35.391Z,26.83
2022-08-05T19:44:44.732Z,26.79
2022-08-05T19:46:52.230Z,26.69
2022-08-05T19:48:54.411Z,26.61
2022-08-05T19:51:05.613Z,26.42
2022-08-05T19:53:10.846Z,26.44
2022-08-05T19:56:15.061Z,26.35
2022-08-05T19:57:57.227Z,26.35
2022-08-05T20:00:06.584Z,26.31
2022-08-05T20:02:19.950Z,26.25
2022-08-05T20:04:49.551Z,26.21
2022-08-05T20:07:47.363Z,26.15
2022-08-05T20:10:11.773Z,26.02
2022-08-05T20:12:39.042Z,26.01
2022-08-05T20:15:13.579Z,25.99
2022-08-05T20:17:24.774Z,25.94
2022-08-05T20:19:36.427Z,25.89
2022-08-05T20:21:54.558Z,25.82
2022-08-05T20:24:00.258Z,25.80
2022-08-05T20:26:32.480Z,25.77
2022-08-05T20:32:18.488Z,25.65
2022-08-05T20:38:08.310Z,25.60
2022-08-05T20:40:34.724Z,25.49
2022-08-05T20:42:47.038Z,25.45
2022-08-05T20:44:53.022Z,25.52
2022-08-05T20:47:07.615Z,25.45
2022-08-05T20:49:11.396Z,25.48
2022-08-05T20:51:15.072Z,25.45
2022-08-05T20:53:36.531Z,25.45
2022-08-05T20:55:56.816Z,25.44
2022-08-05T20:58:15.878Z,25.37
2022-08-05T21:01:04.789Z,25.37
2022-08-05T21:03:16.808Z,25.33
2022-08-05T21:05:24.182Z,25.30
2022-08-05T21:07:26.324Z,25.19
2022-08-05T21:09:53.288Z,25.25
2022-08-05T21:12:09.457Z,25.20
2022-08-05T21:17:05.489Z,25.12
2022-08-05T21:21:50.903Z,25.10
2022-08-05T21:24:26.197Z,25.00
2022-08-05T21:26:39.514Z,25.04
2022-08-05T21:28:55.599Z,24.98
2022-08-05T21:31:40.881Z,24.96
2022-08-05T21:33:47.810Z,24.95
2022-08-05T21:35:58.968Z,24.92
2022-08-05T21:38:10.039Z,24.88
2022-08-05T21:40:38.159Z,24.86
2022-08-05T21:42:59.264Z,24.83
2022-08-05T21:45:10.797Z,24.70
2022-08-05T21:47:17.513Z,24.83
2022-08-05T21:54:35.538Z,24.72
2022-08-05T22:00:01.653Z,24.81
2022-08-05T22:02:03.087Z,24.81
2022-08-05T22:04:07.840Z,24.85
2022-08-05T22:06:22.327Z,24.89
2022-08-05T22:08:29.347Z,24.88
2022-08-05T22:10:39.235Z,24.91
2022-08-05T22:12:50.608Z,24.92
2022-08-05T22:14:54.094Z,24.91
2022-08-05T22:17:04.932Z,24.89
2022-08-05T22:19:55.929Z,24.88
2022-08-05T22:21:33.737Z,24.74
2022-08-05T22:24:02.402Z,24.71
2022-08-05T22:26:09.889Z,24.60
2022-08-05T22:30:44.197Z,24.47
2022-08-05T22:35:47.748Z,24.35
2022-08-05T22:37:58.753Z,24.28
2022-08-05T22:40:07.815Z,24.22
2022-08-05T22:42:15.286Z,24.14
2022-08-05T22:44:25.147Z,24.08
2022-08-05T22:46:29.274Z,24.04
2022-08-05T22:48:34.434Z,23.91
2022-08-05T22:50:37.712Z,23.87
2022-08-05T22:52:51.279Z,23.81
2022-08-05T22:54:55.076Z,23.68
2022-08-05T22:56:57.572Z,23.49
2022-08-05T22:59:04.086Z,23.25
2022-08-05T23:01:24.941Z,23.02
2022-08-05T23:03:57.609Z,22.82
2022-08-05T23:06:01.713Z,22.63
2022-08-05T23:08:04.972Z,22.55
2022-08-05T23:10:08.375Z,22.53
2022-08-05T23:12:11.272Z,22.51
2022-08-05T23:14:22.588Z,22.44
2022-08-05T23:16:39.052Z,22.33
2022-08-05T23:18:46.544Z,22.26
2022-08-05T23:20:59.943Z,22.18
2022-08-05T23:23:05.713Z,22.15
2022-08-05T23:25:16.917Z,22.11
2022-08-05T23:27:22.751Z,22.09
2022-08-05T23:29:27.410Z,22.10
2022-08-05T23:31:37.273Z,22.07
2022-08-05T23:34:04.794Z,22.12
2022-08-05T23:36:02.993Z,22.09
2022-08-05T23:38:07.202Z,22.04
2022-08-05T23:40:15.116Z,22.03
2022-08-05T23:42:29.173Z,22.01
2022-08-05T23:44:32.052Z,22.00
2022-08-05T23:46:34.770Z,21.92
2022-08-05T23:48:39.712Z,21.95
2022-08-05T23:50:44.652Z,22.00
2022-08-05T23:52:53.271Z,22.02
2022-08-05T23:55:08.847Z,22.06
2022-08-05T23:57:11.552Z,22.09
2022-08-05T23:59:14.071Z,22.14
